MDT,Max TemperatureF,Mean TemperatureF,Min TemperatureF,Max Dew PointF,MeanDew PointF,Min DewpointF,Max Humidity, Mean Humidity, Min Humidity, Max Sea Level PressureIn, Mean Sea Level PressureIn, Min Sea Level PressureIn, Max VisibilityMiles, Mean VisibilityMiles, Min VisibilityMiles, Max Wind SpeedMPH, Mean Wind SpeedMPH, Max Gust SpeedMPH,PrecipitationIn, CloudCover, Events, WindDirDegrees
2013-8-1,82,67,51,53,47,36,83,52,21,30.25,30.01,29.82,10,9,2,30,13,41,0.11,2,Rain-Thunderstorm,178
2013-8-2,83,69,54,54,42,31,72,44,16,30.18,29.87,29.78,10,10,10,25,13,32,0.00,1,,231
2013-8-3,82,67,52,56,49,34,93,56,19,30.28,29.95,29.86,10,10,6,37,16,44,T,2,Thunderstorm,159
2013-8-4,83,67,50,49,41,33,83,51,19,30.34,30.00,29.88,10,10,10,32,9,40,T,1,Rain-Thunderstorm,179
2013-8-5,79,65,50,45,41,36,77,50,23,30.28,29.98,29.84,10,10,6,35,11,41,0.01,3,Rain-Thunderstorm,204
2013-8-6,81,64,47,43,38,25,71,42,13,29.96,29.87,29.83,10,10,10,25,10,32,0.00,1,,200
2013-8-7,76,62,48,51,44,32,93,58,22,29.93,29.88,29.84,10,10,6,26,12,32,0.00,0,,174
2013-8-8,74,59,44,50,44,37,96,65,34,30.26,30.02,29.87,10,9,4,24,6,30,T,2,Rain-Thunderstorm,186
2013-8-9,74,57,39,46,42,37,100,64,27,30.32,30.08,30.01,10,10,7,23,9,29,T,1,Rain-Thunderstorm,179
2013-8-10,79,60,40,44,38,32,93,56,19,30.13,30.04,29.99,10,10,10,21,6,28,0.00,2,,199
2013-8-11,75,63,50,45,41,35,71,48,25,30.34,30.07,29.99,10,10,9,23,6,28,T,4,Rain-Thunderstorm,183
2013-8-12,78,60,41,46,41,36,89,58,27,30.34,30.08,30.01,10,10,10,32,8,38,T,1,Rain-Thunderstorm,146
2013-8-13,72,57,41,51,44,39,92,63,33,30.36,30.15,30.04,10,9,2,24,6,31,0.10,4,Rain-Thunderstorm,162
2013-8-14,78,60,41,47,40,27,93,58,23,30.32,30.11,29.98,10,9,2,31,6,44,0.06,2,Rain-Thunderstorm,186
2013-8-15,82,63,43,43,35,23,82,47,11,30.07,30.00,29.95,10,10,9,26,9,36,0.00,1,,98
2013-8-16,85,65,45,49,36,21,82,46,10,30.29,30.01,29.97,10,9,6,20,9,28,0.00,0,,148
2013-8-17,87,68,49,52,35,20,86,48,9,30.01,29.92,29.87,10,9,6,21,8,25,0.00,0,,175
2013-8-18,86,69,51,50,38,30,77,46,15,30.31,29.99,29.88,10,10,5,31,10,43,T,2,Rain-Thunderstorm,201
2013-8-19,88,69,49,42,35,23,71,41,10,30.01,29.93,29.86,10,10,10,18,7,28,0.00,1,,168
2013-8-20,87,69,51,42,37,32,54,34,14,30.25,29.90,29.84,10,10,10,26,9,37,0.00,2,,231
2013-8-21,82,68,53,52,46,40,72,49,26,30.29,29.99,29.88,10,10,10,22,8,28,T,4,Rain-Thunderstorm,103
2013-8-22,81,65,49,54,50,43,93,63,33,30.35,30.11,29.97,10,9,1,25,10,32,0.17,3,Rain-Thunderstorm,170
2013-8-23,81,66,50,54,50,46,96,63,30,30.24,29.97,29.82,10,8,2,41,8,53,0.17,3,Rain-Thunderstorm,213
2013-8-24,76,63,50,49,47,44,89,61,33,29.98,29.93,29.86,10,10,10,23,7,29,0.00,2,,204
2013-8-25,76,63,49,57,51,44,100,68,35,30.36,30.12,29.95,10,7,1,28,7,32,0.30,4,Rain-Thunderstorm,179
2013-8-26,80,66,52,54,51,48,96,66,36,30.07,30.02,29.95,10,10,10,21,8,25,T,3,Rain,222
2013-8-27,82,68,53,57,51,46,86,59,32,30.31,30.04,29.90,10,10,6,24,9,30,0.01,3,Rain-Thunderstorm,177
2013-8-28,85,69,53,55,51,46,93,61,28,30.30,30.00,29.90,10,10,10,24,9,28,T,2,Thunderstorm,192
2013-8-29,85,67,48,51,45,41,83,54,24,30.07,30.03,29.98,10,10,10,21,6,26,T,2,Rain,152
2013-8-30,86,68,50,54,47,41,80,52,23,30.39,30.10,29.90,10,9,2,26,9,32,0.11,3,Rain-Thunderstorm,191
2013-8-31,83,67,51,49,45,39,77,50,23,30.27,29.96,29.89,10,10,10,24,7,33,T,2,Thunderstorm,155